OMAD/AZI METAR and TAF weather

Enter ICAO airport designator
Station Type Date Time Source
OMAD METAR 2018/12/10 14:00 UTC NOAA

OMAD 101400Z 32007KT CAVOK 26/16 Q1014 NOSIG


Station Type Date Time Source
OMAD Decoded METAR 2018/12/10 14:00 UTC NOAA

Abu Dhabi Bateen Airport, United Arab Emirates (OMAD) 24-26N 054-28E 3M
Dec 10, 2018 - 09:00 AM EST / 2018.12.10 1400 UTC
Wind: from the NW (320 degrees) at 8 MPH (7 KT):0
Visibility: greater than 7 mile(s):0
Temperature: 78 F (26 C)
Dew Point: 60 F (16 C)
Relative Humidity: 54%
Pressure (altimeter): 29.94 in. Hg (1014 hPa)
ob: OMAD 101400Z 32007KT CAVOK 26/16 Q1014 NOSIG
cycle: 14

Station Type Date Time Source
OMAD TAF 2018/12/10 12:09 UTC NOAA

TAF TAF OMAD 101100Z 1012/1118 33011KT 8000 NSC
BECMG 1020/1022 VRB02KT
BECMG 1104/1106 32012KT


Example: see airport list